createdAt,value
2022-12-13T00:01:30.405Z,22.85
2022-12-13T00:04:00.006Z,24.45
2022-12-13T00:06:28.212Z,23.05
2022-12-13T00:08:55.540Z,24.50
2022-12-13T00:11:23.071Z,23.67
2022-12-13T00:13:50.537Z,22.52
2022-12-13T00:16:22.687Z,22.60
2022-12-13T00:18:54.971Z,21.30
2022-12-13T00:21:32.974Z,22.55
2022-12-13T00:24:01.321Z,23.13
2022-12-13T00:26:31.040Z,23.70
2022-12-13T00:29:03.473Z,23.15
2022-12-13T00:34:21.119Z,22.88
2022-12-13T00:36:48.688Z,21.67
2022-12-13T00:39:16.853Z,24.45
2022-12-13T00:41:45.032Z,23.50
2022-12-13T00:44:13.663Z,24.85
2022-12-13T00:46:41.841Z,21.77
2022-12-13T00:49:11.049Z,24.02
2022-12-13T00:51:38.612Z,20.30
2022-12-13T00:54:06.564Z,21.50
2022-12-13T00:56:34.446Z,24.92
2022-12-13T00:59:01.714Z,23.50
2022-12-13T01:01:32.082Z,24.63
2022-12-13T01:04:02.364Z,24.20
2022-12-13T01:06:38.831Z,23.48
2022-12-13T01:09:10.184Z,22.73
2022-12-13T01:11:37.444Z,22.48
2022-12-13T01:14:04.988Z,23.38
2022-12-13T01:16:32.496Z,23.30
2022-12-13T01:18:59.834Z,24.02
2022-12-13T01:21:27.068Z,24.98
2022-12-13T01:24:06.822Z,23.02
2022-12-13T01:29:01.508Z,23.25
2022-12-13T01:31:28.979Z,23.33
2022-12-13T01:33:56.428Z,25.17
2022-12-13T01:36:27.816Z,23.67
2022-12-13T01:38:58.077Z,24.35
2022-12-13T01:41:28.561Z,23.60
2022-12-13T01:44:01.243Z,23.85
2022-12-13T01:46:38.223Z,24.98
2022-12-13T01:49:19.651Z,24.85
2022-12-13T01:51:48.172Z,24.38
2022-12-13T01:54:21.647Z,23.88
2022-12-13T01:56:54.088Z,23.35
2022-12-13T01:59:28.586Z,25.27
2022-12-13T02:02:00.580Z,24.08
2022-12-13T02:04:57.066Z,23.75
2022-12-13T02:07:29.624Z,24.98
2022-12-13T02:09:59.997Z,23.67
2022-12-13T02:12:30.719Z,23.77
2022-12-13T02:15:04.889Z,24.13
2022-12-13T02:17:54.402Z,25.90
2022-12-13T02:20:48.691Z,24.05
2022-12-13T02:23:30.904Z,24.90
2022-12-13T02:26:18.530Z,24.40
2022-12-13T02:28:58.279Z,25.70
2022-12-13T02:31:49.593Z,23.75
2022-12-13T02:34:34.614Z,24.35
2022-12-13T02:37:32.337Z,25.35
2022-12-13T02:40:11.471Z,23.85
2022-12-13T02:43:06.962Z,23.65
2022-12-13T02:45:47.031Z,25.23
2022-12-13T02:48:23.971Z,22.23
2022-12-13T02:50:52.720Z,16.70
2022-12-13T02:53:24.311Z,24.50
2022-12-13T02:55:51.628Z,27.27
2022-12-13T02:58:23.955Z,23.08
2022-12-13T03:01:29.081Z,24.70
2022-12-13T03:04:20.091Z,24.50
2022-12-13T03:07:07.023Z,24.40
2022-12-13T03:09:46.271Z,23.70
2022-12-13T03:12:56.496Z,25.38
2022-12-13T03:15:29.395Z,23.88
2022-12-13T03:18:18.781Z,24.55
2022-12-13T03:21:04.492Z,25.08
2022-12-13T03:23:31.781Z,24.73
2022-12-13T03:26:04.922Z,23.73
2022-12-13T03:28:32.206Z,23.58
2022-12-13T03:30:59.488Z,22.38
2022-12-13T03:33:26.725Z,26.13
2022-12-13T03:35:54.058Z,23.23
2022-12-13T03:38:23.186Z,24.60
2022-12-13T03:41:02.916Z,23.88
2022-12-13T03:43:30.390Z,24.20
2022-12-13T03:45:57.719Z,23.25
2022-12-13T03:48:25.096Z,22.65
2022-12-13T03:50:53.808Z,22.63
2022-12-13T03:53:32.551Z,21.58
2022-12-13T03:56:05.626Z,22.65
2022-12-13T03:58:37.306Z,24.20
2022-12-13T04:01:08.137Z,23.92
2022-12-13T04:03:36.280Z,23.05
2022-12-13T04:06:04.284Z,21.35
2022-12-13T04:08:31.674Z,22.25
2022-12-13T04:10:58.974Z,22.08
2022-12-13T04:13:35.301Z,22.70
2022-12-13T04:16:03.130Z,22.27
2022-12-13T04:18:30.620Z,21.58
2022-12-13T04:20:58.078Z,20.98
2022-12-13T04:23:25.325Z,21.30
2022-12-13T04:25:52.657Z,23.27
2022-12-13T04:28:21.415Z,21.67
2022-12-13T04:30:53.178Z,22.42
2022-12-13T04:33:22.617Z,21.63
2022-12-13T04:35:50.608Z,22.35
2022-12-13T04:38:18.132Z,23.80
2022-12-13T04:40:45.560Z,20.15
2022-12-13T04:43:12.884Z,21.80
2022-12-13T04:45:40.402Z,21.95
2022-12-13T04:48:08.659Z,21.02
2022-12-13T04:50:36.503Z,21.90
2022-12-13T04:53:03.821Z,21.77
2022-12-13T04:55:31.094Z,21.85
2022-12-13T04:57:58.309Z,20.83
2022-12-13T05:00:25.660Z,20.90
2022-12-13T05:02:52.915Z,20.77
2022-12-13T05:05:20.184Z,20.92
2022-12-13T05:07:47.404Z,21.10
2022-12-13T05:10:33.870Z,20.30
2022-12-13T05:13:02.837Z,19.42
2022-12-13T05:15:32.826Z,21.13
2022-12-13T05:18:09.491Z,19.05
2022-12-13T05:20:39.574Z,20.02
2022-12-13T05:23:06.966Z,20.10
2022-12-13T05:25:36.855Z,18.60
2022-12-13T05:28:09.007Z,19.90
2022-12-13T05:30:53.249Z,19.48
2022-12-13T05:33:22.764Z,18.88
2022-12-13T05:35:50.985Z,18.17
2022-12-13T05:38:20.176Z,20.70
2022-12-13T05:40:47.437Z,18.77
2022-12-13T05:43:21.473Z,19.08
2022-12-13T05:45:50.258Z,21.13
2022-12-13T05:48:24.912Z,18.60
2022-12-13T05:51:10.503Z,19.08
2022-12-13T05:53:41.320Z,18.10
2022-12-13T05:56:11.051Z,18.35
2022-12-13T05:58:39.788Z,19.50
2022-12-13T06:01:10.763Z,19.17
2022-12-13T06:03:38.489Z,18.15
2022-12-13T06:06:08.485Z,17.98
2022-12-13T06:08:36.626Z,17.92
2022-12-13T06:11:09.936Z,18.73
2022-12-13T06:13:42.366Z,17.85
2022-12-13T06:16:21.779Z,18.08
2022-12-13T06:18:57.499Z,17.30
2022-12-13T06:21:43.430Z,18.42
2022-12-13T06:24:14.948Z,16.80
2022-12-13T06:26:42.491Z,18.45
2022-12-13T06:29:23.957Z,17.85
2022-12-13T06:32:01.409Z,18.20
2022-12-13T06:34:34.818Z,17.70
2022-12-13T06:37:05.847Z,17.80
2022-12-13T06:39:33.959Z,18.02
2022-12-13T06:42:03.284Z,18.73
2022-12-13T06:44:30.739Z,17.50
2022-12-13T06:47:11.313Z,17.05
2022-12-13T06:49:41.999Z,18.55
2022-12-13T06:52:14.166Z,18.38
2022-12-13T06:54:42.556Z,18.27
2022-12-13T06:57:11.537Z,19.48
2022-12-13T06:59:39.068Z,17.48
2022-12-13T07:02:24.201Z,19.27
2022-12-13T07:04:53.645Z,18.88
2022-12-13T07:07:21.004Z,20.50
2022-12-13T07:09:48.243Z,22.05
2022-12-13T07:12:15.497Z,19.77
2022-12-13T07:14:42.828Z,20.90
2022-12-13T07:17:10.799Z,19.98
2022-12-13T07:19:38.656Z,19.30
2022-12-13T07:22:06.341Z,20.92
2022-12-13T07:24:35.495Z,17.95
2022-12-13T07:27:03.611Z,18.38
2022-12-13T07:29:30.980Z,18.40
2022-12-13T07:32:01.133Z,18.67
2022-12-13T07:34:30.199Z,16.83
2022-12-13T07:36:57.568Z,18.73
2022-12-13T07:39:28.587Z,18.48
2022-12-13T07:41:56.500Z,18.23
2022-12-13T07:44:24.688Z,19.75
2022-12-13T07:46:52.505Z,18.77
2022-12-13T07:49:19.977Z,17.70
2022-12-13T07:51:47.984Z,18.25
2022-12-13T07:54:15.329Z,17.88
2022-12-13T07:56:42.615Z,18.60
2022-12-13T07:59:10.778Z,18.05
2022-12-13T08:01:38.219Z,17.23
2022-12-13T08:04:06.059Z,17.38
2022-12-13T08:06:37.950Z,19.00
2022-12-13T08:09:05.938Z,18.10
2022-12-13T08:11:33.576Z,19.83
2022-12-13T08:14:00.806Z,17.98
2022-12-13T08:16:30.346Z,17.80
2022-12-13T08:19:01.874Z,19.25
2022-12-13T08:21:57.896Z,18.35
2022-12-13T08:24:28.021Z,17.17
2022-12-13T08:27:03.213Z,15.38
2022-12-13T08:29:34.219Z,17.25
2022-12-13T08:32:10.875Z,15.52
2022-12-13T08:34:39.004Z,14.65
2022-12-13T08:37:06.585Z,16.50
2022-12-13T08:39:36.711Z,16.23
2022-12-13T08:42:18.744Z,16.02
2022-12-13T08:44:48.797Z,16.02
2022-12-13T08:47:23.333Z,16.50
2022-12-13T08:50:04.046Z,12.27
2022-12-13T08:52:42.209Z,16.33
2022-12-13T08:55:12.172Z,16.33
2022-12-13T08:57:40.673Z,15.70
2022-12-13T09:00:11.496Z,16.98
2022-12-13T09:02:39.170Z,15.55
2022-12-13T09:05:08.217Z,16.30
2022-12-13T09:07:36.446Z,14.50
2022-12-13T09:10:25.677Z,14.43
2022-12-13T09:13:01.138Z,16.15
2022-12-13T09:15:34.390Z,16.67
2022-12-13T09:18:04.760Z,14.98
2022-12-13T09:20:41.572Z,13.73
2022-12-13T09:23:13.606Z,13.68
2022-12-13T09:26:05.220Z,14.77
2022-12-13T09:28:36.925Z,13.48
2022-12-13T09:31:12.831Z,14.60
2022-12-13T09:33:40.929Z,15.25
2022-12-13T09:36:11.053Z,15.63
2022-12-13T09:38:38.856Z,13.88
2022-12-13T09:41:30.961Z,14.57
2022-12-13T09:44:32.544Z,14.60
2022-12-13T09:47:03.808Z,13.85
2022-12-13T09:49:52.162Z,15.13
2022-12-13T09:52:23.572Z,14.80
2022-12-13T09:54:55.492Z,13.43
2022-12-13T09:57:34.145Z,13.95
2022-12-13T10:00:08.183Z,12.48
2022-12-13T10:02:49.307Z,14.82
2022-12-13T10:05:35.715Z,13.38
2022-12-13T10:08:08.266Z,12.63
2022-12-13T10:10:35.629Z,13.18
2022-12-13T10:13:25.197Z,14.65
2022-12-13T10:16:04.694Z,12.82
2022-12-13T10:18:35.768Z,13.50
2022-12-13T10:21:09.861Z,13.15
2022-12-13T10:23:59.782Z,11.75
2022-12-13T10:26:25.129Z,10.82
2022-12-13T10:29:04.110Z,11.73
2022-12-13T10:31:42.691Z,11.82
2022-12-13T10:34:35.866Z,11.10
2022-12-13T10:37:24.672Z,14.32
2022-12-13T10:39:52.017Z,11.45
2022-12-13T10:42:22.457Z,12.25
2022-12-13T10:45:10.468Z,11.60
2022-12-13T10:47:37.834Z,10.57
2022-12-13T10:50:05.636Z,11.75
2022-12-13T10:52:43.125Z,11.27
2022-12-13T10:55:34.962Z,9.85
2022-12-13T10:58:07.588Z,9.95
2022-12-13T11:00:45.364Z,11.73
2022-12-13T11:03:28.627Z,12.80
2022-12-13T11:06:18.081Z,11.63
2022-12-13T11:08:45.326Z,10.90
2022-12-13T11:11:15.128Z,11.90
2022-12-13T11:13:46.314Z,10.13
2022-12-13T11:16:50.677Z,11.57
2022-12-13T11:19:26.307Z,11.70
2022-12-13T11:21:54.391Z,10.93
2022-12-13T11:24:26.131Z,11.27
2022-12-13T11:26:58.781Z,10.75
2022-12-13T11:29:50.970Z,10.98
2022-12-13T11:32:26.861Z,11.13
2022-12-13T11:35:09.152Z,11.18
2022-12-13T11:38:01.380Z,10.90
2022-12-13T11:40:44.333Z,10.90
2022-12-13T11:43:29.301Z,11.65
2022-12-13T11:46:00.888Z,12.02
2022-12-13T11:48:41.762Z,11.75
2022-12-13T11:51:12.993Z,12.40
2022-12-13T11:53:48.170Z,12.55
2022-12-13T11:56:32.103Z,11.75
2022-12-13T11:59:31.531Z,11.10
2022-12-13T12:02:23.316Z,10.80
2022-12-13T12:05:00.374Z,11.13
2022-12-13T12:49:01.113Z,11.07
2022-12-13T12:51:48.027Z,11.60
2022-12-13T12:54:33.668Z,12.40
2022-12-13T12:57:45.410Z,11.57
2022-12-13T13:00:17.063Z,11.80
2022-12-13T13:03:22.124Z,12.45
2022-12-13T13:06:02.690Z,11.40
2022-12-13T13:08:44.327Z,12.57
2022-12-13T13:11:23.956Z,13.50
2022-12-13T13:14:01.488Z,11.93
2022-12-13T13:16:34.983Z,15.27
2022-12-13T13:19:26.161Z,12.23
2022-12-13T13:22:06.408Z,13.05
2022-12-13T13:25:11.476Z,13.07
2022-12-13T13:27:43.987Z,12.93
2022-12-13T13:30:25.363Z,14.35
2022-12-13T13:32:55.293Z,13.32
2022-12-13T13:35:33.177Z,12.65
2022-12-13T13:38:21.942Z,13.20
2022-12-13T13:40:49.702Z,13.45
2022-12-13T13:43:32.177Z,15.20
2022-12-13T13:46:00.365Z,14.20
2022-12-13T13:48:37.155Z,16.73
2022-12-13T13:52:23.745Z,14.60
2022-12-13T13:55:01.660Z,15.38
2022-12-13T13:58:09.816Z,14.32
2022-12-13T14:01:11.325Z,15.48
2022-12-13T14:03:57.688Z,16.42
2022-12-13T14:07:01.194Z,15.25
2022-12-13T14:10:05.192Z,14.38
2022-12-13T14:12:51.661Z,15.75
2022-12-13T14:15:40.473Z,15.05
2022-12-13T14:18:48.085Z,16.35
2022-12-13T14:21:49.594Z,16.10
2022-12-13T14:24:49.390Z,16.73
2022-12-13T14:27:36.938Z,17.92
2022-12-13T14:32:53.598Z,14.23
2022-12-13T14:35:26.883Z,16.15
2022-12-13T14:37:59.281Z,14.65
2022-12-13T14:40:35.455Z,15.63
2022-12-13T14:43:03.702Z,15.13
2022-12-13T14:45:32.776Z,14.23
2022-12-13T14:48:04.552Z,15.55
2022-12-13T14:50:35.973Z,16.58
2022-12-13T14:53:04.525Z,15.55
2022-12-13T14:55:37.285Z,16.00
2022-12-13T14:58:17.070Z,16.33
2022-12-13T15:00:45.967Z,16.05
2022-12-13T15:03:23.685Z,14.60
2022-12-13T15:06:02.601Z,41.28
2022-12-13T15:08:31.950Z,22.38
2022-12-13T15:11:00.763Z,16.23
2022-12-13T15:13:48.268Z,17.10
2022-12-13T15:16:26.579Z,16.77
2022-12-13T15:19:31.084Z,16.10
2022-12-13T15:22:15.078Z,15.25
2022-12-13T15:24:49.178Z,15.00
2022-12-13T15:27:24.376Z,15.45
2022-12-13T15:29:54.154Z,17.73
2022-12-13T15:32:23.183Z,16.55
2022-12-13T15:34:51.897Z,15.63
2022-12-13T15:37:32.808Z,16.35
2022-12-13T15:40:06.679Z,14.93
2022-12-13T15:42:37.044Z,15.18
2022-12-13T15:45:17.234Z,15.98
2022-12-13T15:47:46.766Z,15.15
2022-12-13T15:50:34.165Z,17.52
2022-12-13T15:53:05.017Z,16.08
2022-12-13T15:55:36.405Z,15.80
2022-12-13T15:58:04.116Z,16.50
2022-12-13T16:00:34.589Z,16.45
2022-12-13T16:03:21.689Z,16.50
2022-12-13T16:05:54.809Z,16.98
2022-12-13T16:08:32.138Z,17.35
2022-12-13T16:11:00.153Z,18.33
2022-12-13T16:13:30.265Z,17.45
2022-12-13T16:16:27.263Z,19.00
2022-12-13T16:19:00.221Z,19.97
2022-12-13T16:21:28.577Z,18.30
2022-12-13T16:23:55.938Z,30.42
2022-12-13T16:26:28.217Z,26.65
2022-12-13T16:28:59.280Z,18.35
2022-12-13T16:31:31.276Z,16.55
2022-12-13T16:33:58.653Z,18.02
2022-12-13T16:36:26.655Z,17.25
2022-12-13T16:38:53.944Z,16.95
2022-12-13T16:41:22.160Z,18.88
2022-12-13T16:43:56.228Z,16.83
2022-12-13T16:47:14.341Z,16.50
2022-12-13T16:49:21.759Z,16.63
2022-12-13T16:51:49.521Z,17.77
2022-12-13T16:54:18.534Z,16.55
2022-12-13T16:56:46.483Z,16.35
2022-12-13T16:59:17.596Z,16.23
2022-12-13T17:01:45.608Z,18.13
2022-12-13T17:04:21.022Z,18.38
2022-12-13T17:06:54.792Z,16.67
2022-12-13T17:09:24.051Z,16.80
2022-12-13T17:11:51.750Z,17.67
2022-12-13T17:14:19.015Z,16.77
2022-12-13T17:16:46.349Z,17.05
2022-12-13T17:19:15.569Z,17.98
2022-12-13T17:21:43.428Z,17.77
2022-12-13T17:24:10.740Z,18.48
2022-12-13T17:26:37.992Z,17.75
2022-12-13T17:29:05.415Z,17.80
2022-12-13T17:31:35.860Z,17.52
2022-12-13T17:34:04.391Z,18.95
2022-12-13T17:36:32.217Z,21.13
2022-12-13T17:38:59.432Z,31.10
2022-12-13T17:41:26.744Z,20.95
2022-12-13T17:43:59.261Z,21.23
2022-12-13T17:46:26.554Z,18.52
2022-12-13T17:48:53.833Z,19.65
2022-12-13T17:51:21.050Z,20.23
2022-12-13T17:53:48.285Z,20.58
2022-12-13T17:56:16.125Z,20.65
2022-12-13T17:58:43.887Z,20.45
2022-12-13T18:01:16.610Z,20.88
2022-12-13T18:03:44.826Z,22.08
2022-12-13T18:06:12.191Z,23.52
2022-12-13T18:08:40.512Z,28.85
2022-12-13T18:11:31.643Z,26.83
2022-12-13T18:13:56.689Z,25.30
2022-12-13T18:16:30.331Z,23.00
2022-12-13T18:19:01.220Z,23.38
2022-12-13T18:21:28.522Z,23.52
2022-12-13T18:23:56.276Z,23.42
2022-12-13T18:26:24.760Z,23.83
2022-12-13T18:28:52.297Z,22.17
2022-12-13T18:31:24.026Z,22.27
2022-12-13T18:33:53.431Z,24.55
2022-12-13T18:36:22.769Z,23.00
2022-12-13T18:38:50.204Z,23.83
2022-12-13T18:41:23.300Z,25.38
2022-12-13T18:43:59.869Z,24.70
2022-12-13T18:46:29.575Z,24.10
2022-12-13T18:48:57.567Z,23.23
2022-12-13T18:51:25.395Z,23.27
2022-12-13T18:53:53.496Z,21.80
2022-12-13T18:56:20.910Z,23.63
2022-12-13T18:58:49.427Z,24.13
2022-12-13T19:01:17.593Z,26.20
2022-12-13T19:03:46.651Z,25.20
2022-12-13T19:06:17.101Z,23.90
2022-12-13T19:08:48.153Z,23.90
2022-12-13T19:11:15.665Z,22.25
2022-12-13T19:13:43.128Z,24.38
2022-12-13T19:16:12.794Z,22.05
2022-12-13T19:18:41.361Z,24.77
2022-12-13T19:21:12.347Z,24.70
2022-12-13T19:23:40.949Z,24.02
2022-12-13T19:26:10.428Z,23.85
2022-12-13T19:28:41.335Z,23.55
2022-12-13T19:31:11.010Z,22.48
2022-12-13T19:33:38.874Z,23.63
2022-12-13T19:36:06.719Z,24.98
2022-12-13T19:38:34.437Z,24.75
2022-12-13T19:41:08.731Z,24.33
2022-12-13T19:43:36.030Z,22.27
2022-12-13T19:46:03.712Z,24.27
2022-12-13T19:48:31.408Z,23.27
2022-12-13T19:51:00.249Z,24.00
2022-12-13T19:53:29.243Z,23.83
2022-12-13T19:55:56.977Z,22.38
2022-12-13T19:58:25.060Z,23.30
2022-12-13T20:00:52.672Z,21.55
2022-12-13T20:03:20.132Z,23.33
2022-12-13T20:05:57.524Z,20.05
2022-12-13T20:08:24.986Z,32.97
2022-12-13T20:11:07.194Z,34.65
2022-12-13T20:13:35.563Z,21.60
2022-12-13T20:16:04.795Z,22.42
2022-12-13T20:18:32.980Z,21.65
2022-12-13T20:21:13.471Z,20.63
2022-12-13T20:23:48.703Z,20.90
2022-12-13T20:26:21.050Z,21.43
2022-12-13T20:28:49.269Z,22.42
2022-12-13T20:31:25.124Z,21.58
2022-12-13T20:34:03.764Z,23.20
2022-12-13T20:36:31.466Z,22.13
2022-12-13T20:39:01.389Z,23.65
2022-12-13T20:41:30.400Z,22.00
2022-12-13T20:43:59.389Z,23.00
2022-12-13T20:46:28.577Z,23.65
2022-12-13T20:48:57.718Z,23.45
2022-12-13T20:51:27.077Z,21.77
2022-12-13T20:53:54.886Z,21.85
2022-12-13T20:56:24.521Z,20.52
2022-12-13T20:58:52.164Z,23.25
2022-12-13T21:01:30.924Z,22.95
2022-12-13T21:04:00.261Z,22.50
2022-12-13T21:06:28.769Z,22.83
2022-12-13T21:08:59.933Z,22.55
2022-12-13T21:11:41.666Z,24.98
2022-12-13T21:14:23.467Z,24.02
2022-12-13T21:16:56.334Z,25.58
2022-12-13T21:19:33.104Z,23.65
2022-12-13T21:22:03.369Z,25.77
2022-12-13T21:24:30.604Z,24.20
2022-12-13T21:26:57.963Z,23.50
2022-12-13T21:29:25.281Z,23.70
2022-12-13T21:31:53.355Z,24.23
2022-12-13T21:34:22.101Z,21.23
2022-12-13T21:36:53.204Z,38.47
2022-12-13T21:39:23.008Z,31.05
2022-12-13T21:41:51.412Z,25.52
2022-12-13T21:44:19.650Z,22.77
2022-12-13T21:47:11.354Z,23.65
2022-12-13T21:49:35.118Z,21.98
2022-12-13T21:52:02.444Z,23.67
2022-12-13T21:54:29.683Z,21.63
2022-12-13T21:57:15.681Z,23.45
2022-12-13T21:59:43.158Z,22.35
2022-12-13T22:02:18.518Z,21.67
2022-12-13T22:04:54.890Z,25.73
2022-12-13T22:07:28.004Z,23.70
2022-12-13T22:09:56.216Z,22.83
2022-12-13T22:12:35.846Z,23.20
2022-12-13T22:15:21.922Z,23.35
2022-12-13T22:17:49.138Z,22.65
2022-12-13T22:20:16.459Z,22.05
2022-12-13T22:22:44.325Z,22.15
2022-12-13T22:25:12.147Z,21.40
2022-12-13T22:27:39.384Z,23.23
2022-12-13T22:30:07.450Z,21.77
2022-12-13T22:32:34.668Z,21.50
2022-12-13T22:35:02.065Z,22.65
2022-12-13T22:37:29.568Z,21.35
2022-12-13T22:39:56.819Z,21.52
2022-12-13T22:42:24.109Z,22.30
2022-12-13T22:44:51.335Z,21.23
2022-12-13T22:47:19.164Z,20.23
2022-12-13T22:49:48.876Z,21.95
2022-12-13T22:52:17.181Z,21.05
2022-12-13T22:54:44.453Z,21.08
2022-12-13T22:57:11.764Z,23.15
2022-12-13T22:59:39.185Z,20.63
2022-12-13T23:02:06.649Z,20.23
2022-12-13T23:04:33.981Z,21.33
2022-12-13T23:07:01.195Z,20.80
2022-12-13T23:09:28.442Z,20.13
2022-12-13T23:12:14.299Z,20.35
2022-12-13T23:14:41.581Z,22.40
2022-12-13T23:17:08.864Z,20.83
2022-12-13T23:19:49.013Z,20.25
2022-12-13T23:22:21.136Z,23.10
2022-12-13T23:24:49.313Z,20.15
2022-12-13T23:27:17.318Z,20.73
2022-12-13T23:29:44.738Z,20.05
2022-12-13T23:32:12.621Z,20.27
2022-12-13T23:34:39.860Z,19.02
2022-12-13T23:37:07.064Z,17.13
2022-12-13T23:39:34.287Z,19.38
2022-12-13T23:42:01.532Z,20.35
2022-12-13T23:44:28.754Z,18.77
2022-12-13T23:46:56.077Z,18.55
2022-12-13T23:49:23.441Z,20.90
2022-12-13T23:51:50.686Z,18.40
2022-12-13T23:54:19.647Z,18.67
2022-12-13T23:56:47.648Z,18.75
2022-12-13T23:59:14.917Z,16.58
